createdAt,value
2022-09-22T00:01:30.190Z,6.74
2022-09-22T00:04:00.344Z,6.71
2022-09-22T00:06:32.909Z,6.79
2022-09-22T00:09:01.814Z,7.01
2022-09-22T00:11:32.257Z,7.02
2022-09-22T00:14:14.496Z,6.95
2022-09-22T00:16:47.173Z,6.91
2022-09-22T00:19:17.059Z,6.83
2022-09-22T00:21:45.238Z,6.73
2022-09-22T00:24:13.191Z,6.63
2022-09-22T00:26:41.541Z,6.61
2022-09-22T00:29:09.908Z,6.53
2022-09-22T00:31:38.912Z,6.46
2022-09-22T00:34:07.472Z,6.36
2022-09-22T00:36:35.567Z,6.29
2022-09-22T00:39:03.585Z,6.25
2022-09-22T00:41:34.135Z,6.18
2022-09-22T00:44:26.524Z,6.10
2022-09-22T00:47:13.283Z,6.05
2022-09-22T00:49:59.566Z,5.99
2022-09-22T00:53:00.710Z,5.92
2022-09-22T00:55:38.307Z,5.94
2022-09-22T00:58:11.978Z,5.92
2022-09-22T01:00:39.840Z,5.87
2022-09-22T01:03:12.209Z,5.82
2022-09-22T01:05:40.603Z,5.77
2022-09-22T01:08:08.567Z,5.71
2022-09-22T01:10:36.424Z,5.65
2022-09-22T01:13:31.264Z,5.64
2022-09-22T01:16:02.672Z,5.61
2022-09-22T01:18:49.526Z,5.60
2022-09-22T01:21:51.882Z,5.63
2022-09-22T01:24:45.514Z,5.64
2022-09-22T01:27:16.564Z,5.63
2022-09-22T01:30:05.518Z,5.63
2022-09-22T01:32:46.123Z,5.58
2022-09-22T01:35:28.396Z,5.64
2022-09-22T01:38:05.035Z,5.66
2022-09-22T01:40:48.885Z,5.70
2022-09-22T01:43:25.665Z,5.65
2022-09-22T01:45:53.245Z,5.61
2022-09-22T01:48:23.785Z,5.60
2022-09-22T01:51:04.643Z,5.60
2022-09-22T01:53:34.892Z,5.52
2022-09-22T01:56:05.402Z,5.51
2022-09-22T01:58:39.253Z,5.45
2022-09-22T02:01:17.564Z,5.41
2022-09-22T02:04:22.097Z,5.34
2022-09-22T02:07:05.671Z,5.33
2022-09-22T02:09:35.152Z,5.32
2022-09-22T02:12:03.711Z,5.30
2022-09-22T02:14:31.595Z,5.29
2022-09-22T02:17:01.639Z,5.27
2022-09-22T02:19:33.381Z,5.29
2022-09-22T02:22:01.135Z,5.26
2022-09-22T02:24:36.118Z,5.23
2022-09-22T02:27:27.504Z,5.23
2022-09-22T02:30:05.733Z,5.21
2022-09-22T02:32:34.317Z,5.19
2022-09-22T02:35:02.274Z,5.12
2022-09-22T02:37:53.738Z,5.06
2022-09-22T02:40:49.935Z,5.03
2022-09-22T02:43:24.565Z,5.01
2022-09-22T02:46:13.615Z,5.00
2022-09-22T02:48:46.678Z,4.99
2022-09-22T02:51:14.868Z,4.98
2022-09-22T02:53:42.415Z,4.97
2022-09-22T02:56:10.087Z,5.02
2022-09-22T02:58:37.658Z,5.09
2022-09-22T03:01:08.963Z,5.09
2022-09-22T03:03:37.591Z,5.09
2022-09-22T03:06:05.508Z,5.05
2022-09-22T03:08:33.511Z,5.07
2022-09-22T03:11:01.315Z,5.16
2022-09-22T03:13:29.177Z,5.10
2022-09-22T03:15:57.119Z,5.06
2022-09-22T03:18:24.955Z,5.01
2022-09-22T03:20:52.651Z,4.96
2022-09-22T03:23:20.345Z,4.88
2022-09-22T03:25:47.999Z,4.85
2022-09-22T03:28:15.997Z,4.84
2022-09-22T03:30:43.692Z,4.79
2022-09-22T03:33:11.317Z,4.77
2022-09-22T03:35:39.272Z,4.78
2022-09-22T03:38:07.030Z,4.79
2022-09-22T03:40:34.850Z,4.81
2022-09-22T03:43:02.542Z,4.83
2022-09-22T03:45:30.239Z,5.01
2022-09-22T03:47:59.192Z,5.24
2022-09-22T03:50:28.481Z,5.36
2022-09-22T03:52:57.721Z,5.79
2022-09-22T03:55:25.559Z,6.09
2022-09-22T03:57:53.128Z,6.23
2022-09-22T04:00:20.670Z,6.59
2022-09-22T04:02:48.356Z,6.94
2022-09-22T04:05:16.761Z,7.10
2022-09-22T04:07:45.558Z,7.08
2022-09-22T04:10:13.683Z,7.02
2022-09-22T04:12:41.569Z,7.02
2022-09-22T04:15:09.746Z,7.04
2022-09-22T04:17:46.538Z,7.11
2022-09-22T04:20:14.194Z,7.16
2022-09-22T04:22:41.849Z,7.21
2022-09-22T04:25:11.972Z,7.30
2022-09-22T04:27:40.826Z,7.38
2022-09-22T04:30:09.152Z,7.44
2022-09-22T04:32:36.803Z,7.53
2022-09-22T04:35:04.626Z,7.65
2022-09-22T04:37:32.441Z,7.81
2022-09-22T04:40:00.329Z,8.12
2022-09-22T04:42:28.014Z,8.55
2022-09-22T04:45:02.070Z,8.85
2022-09-22T04:47:30.297Z,8.97
2022-09-22T04:49:58.363Z,9.20
2022-09-22T04:52:26.887Z,9.37
2022-09-22T04:54:54.422Z,9.33
2022-09-22T04:57:22.078Z,9.35
2022-09-22T04:59:49.729Z,9.36
2022-09-22T05:02:17.893Z,9.55
2022-09-22T05:04:45.542Z,9.88
2022-09-22T05:07:15.131Z,9.69
2022-09-22T05:09:44.103Z,9.82
2022-09-22T05:12:11.754Z,9.90
2022-09-22T05:14:40.126Z,9.86
2022-09-22T05:17:07.785Z,10.01
2022-09-22T05:19:35.515Z,10.06
2022-09-22T05:22:03.146Z,10.25
2022-09-22T05:24:32.063Z,10.22
2022-09-22T05:27:00.107Z,10.30
2022-09-22T05:29:28.143Z,10.43
2022-09-22T05:31:55.896Z,10.57
2022-09-22T05:34:23.597Z,10.63
2022-09-22T05:36:51.477Z,10.48
2022-09-22T05:39:19.215Z,10.52
2022-09-22T05:41:49.954Z,10.59
2022-09-22T05:44:17.674Z,10.62
2022-09-22T05:46:46.901Z,10.64
2022-09-22T05:49:14.539Z,10.71
2022-09-22T05:51:42.261Z,10.56
2022-09-22T05:54:10.277Z,10.52
2022-09-22T05:56:39.373Z,10.75
2022-09-22T05:59:07.113Z,10.85
2022-09-22T06:01:34.872Z,10.98
2022-09-22T06:04:02.658Z,11.07
2022-09-22T06:06:30.665Z,11.22
2022-09-22T06:08:58.682Z,11.10
2022-09-22T06:11:26.375Z,11.04
2022-09-22T06:13:54.754Z,11.27
2022-09-22T06:16:22.474Z,11.21
2022-09-22T06:18:50.212Z,11.33
2022-09-22T06:21:17.839Z,11.07
2022-09-22T06:23:45.478Z,11.16
2022-09-22T06:26:13.086Z,11.22
2022-09-22T06:28:40.721Z,11.28
2022-09-22T06:31:08.589Z,11.23
2022-09-22T06:33:36.254Z,11.14
2022-09-22T06:36:08.182Z,11.24
2022-09-22T06:38:35.951Z,11.35
2022-09-22T06:41:04.454Z,11.27
2022-09-22T06:43:33.142Z,11.27
2022-09-22T06:46:03.000Z,11.36
2022-09-22T06:48:32.195Z,11.49
2022-09-22T06:50:59.921Z,11.64
2022-09-22T06:53:27.860Z,11.52
2022-09-22T06:55:55.617Z,11.80
2022-09-22T06:58:23.404Z,11.76
2022-09-22T07:00:51.510Z,11.93
2022-09-22T07:03:24.532Z,11.70
2022-09-22T07:06:11.134Z,11.79
2022-09-22T07:08:39.789Z,11.81
2022-09-22T07:11:10.744Z,12.19
2022-09-22T07:13:41.029Z,12.35
2022-09-22T07:16:10.482Z,12.30
2022-09-22T07:18:41.958Z,12.38
2022-09-22T07:21:16.776Z,12.23
2022-09-22T07:23:44.499Z,12.58
2022-09-22T07:26:13.911Z,12.60
2022-09-22T07:28:42.856Z,12.84
2022-09-22T07:31:13.211Z,12.85
2022-09-22T07:33:43.585Z,12.97
2022-09-22T07:36:15.334Z,12.88
2022-09-22T07:38:43.889Z,12.93
2022-09-22T07:41:13.263Z,12.88
2022-09-22T07:43:41.398Z,12.73
2022-09-22T07:46:09.365Z,13.01
2022-09-22T07:48:45.829Z,13.07
2022-09-22T07:51:20.872Z,13.19
2022-09-22T07:54:02.651Z,13.29
2022-09-22T07:56:31.135Z,13.22
2022-09-22T07:58:58.894Z,13.31
2022-09-22T08:01:26.932Z,13.50
2022-09-22T08:03:57.326Z,13.56
2022-09-22T08:06:25.201Z,13.68
2022-09-22T08:08:55.550Z,13.92
2022-09-22T08:11:25.677Z,13.98
2022-09-22T08:13:55.949Z,14.16
2022-09-22T08:16:28.675Z,14.02
2022-09-22T08:18:58.299Z,14.14
2022-09-22T08:21:27.439Z,14.56
2022-09-22T08:23:56.597Z,14.95
2022-09-22T08:26:24.246Z,14.91
2022-09-22T08:28:54.459Z,14.24
2022-09-22T08:31:23.279Z,14.29
2022-09-22T08:33:54.263Z,14.19
2022-09-22T08:36:25.416Z,14.07
2022-09-22T08:38:54.584Z,14.21
2022-09-22T08:42:09.763Z,14.23
2022-09-22T08:44:44.849Z,14.27
2022-09-22T08:47:17.111Z,14.17
2022-09-22T08:50:05.878Z,14.21
2022-09-22T08:52:48.618Z,14.31
2022-09-22T08:55:24.356Z,14.68
2022-09-22T08:57:57.001Z,14.51
2022-09-22T09:00:25.811Z,14.87
2022-09-22T09:03:10.689Z,14.98
2022-09-22T09:05:48.305Z,14.85
2022-09-22T09:08:41.615Z,15.18
2022-09-22T09:11:19.441Z,15.36
2022-09-22T09:14:00.322Z,15.36
2022-09-22T09:16:44.598Z,15.36
2022-09-22T09:19:35.588Z,15.28
2022-09-22T09:22:25.534Z,15.17
2022-09-22T09:25:24.345Z,15.26
2022-09-22T09:28:01.125Z,15.37
2022-09-22T09:30:30.586Z,15.42
2022-09-22T09:33:05.738Z,15.60
2022-09-22T09:35:53.810Z,15.34
2022-09-22T09:38:29.951Z,15.36
2022-09-22T09:41:19.091Z,15.43
2022-09-22T09:43:47.116Z,15.36
2022-09-22T09:46:24.932Z,15.33
2022-09-22T09:49:02.867Z,15.78
2022-09-22T09:51:30.691Z,16.05
2022-09-22T09:53:58.470Z,16.24
2022-09-22T09:56:28.269Z,16.38
2022-09-22T09:59:25.060Z,16.27
2022-09-22T10:01:54.385Z,16.70
2022-09-22T10:04:29.347Z,17.07
2022-09-22T10:10:37.797Z,16.17
2022-09-22T10:13:18.120Z,15.64
2022-09-22T10:15:48.574Z,15.91
2022-09-22T10:18:25.325Z,16.35
2022-09-22T10:21:18.441Z,16.66
2022-09-22T10:23:50.511Z,16.59
2022-09-22T10:26:30.344Z,16.49
2022-09-22T10:29:12.975Z,16.56
2022-09-22T10:31:41.836Z,16.88
2022-09-22T10:34:31.719Z,16.94
2022-09-22T10:37:00.210Z,17.22
2022-09-22T10:39:36.818Z,17.18
2022-09-22T10:42:08.116Z,17.44
2022-09-22T10:44:39.399Z,16.86
2022-09-22T10:47:31.271Z,16.50
2022-09-22T10:50:22.679Z,16.45
2022-09-22T10:53:31.315Z,16.58
2022-09-22T10:56:08.513Z,16.98
2022-09-22T10:59:01.044Z,17.37
2022-09-22T11:01:31.267Z,17.32
2022-09-22T11:04:19.833Z,17.32
2022-09-22T11:07:24.820Z,17.29
2022-09-22T11:10:39.806Z,17.70
2022-09-22T11:13:34.528Z,18.18
2022-09-22T11:16:13.454Z,18.22
2022-09-22T11:19:06.533Z,18.19
2022-09-22T11:21:44.742Z,17.95
2022-09-22T11:24:30.468Z,17.60
2022-09-22T11:26:59.524Z,17.89
2022-09-22T11:29:51.422Z,17.98
2022-09-22T11:32:34.351Z,18.11
2022-09-22T11:35:20.226Z,18.22
2022-09-22T11:37:53.942Z,18.34
2022-09-22T11:40:25.427Z,18.26
2022-09-22T11:43:02.266Z,18.22
2022-09-22T11:45:56.993Z,18.33
2022-09-22T11:48:56.189Z,18.46
2022-09-22T11:51:35.941Z,18.39
2022-09-22T11:54:21.711Z,18.27
2022-09-22T11:56:55.696Z,18.18
2022-09-22T11:59:55.675Z,18.18
2022-09-22T12:02:27.361Z,18.11
2022-09-22T12:05:15.513Z,18.19
2022-09-22T12:07:55.921Z,18.04
2022-09-22T12:10:31.445Z,18.04
2022-09-22T12:12:59.134Z,18.10
2022-09-22T12:15:35.947Z,18.23
2022-09-22T12:18:14.062Z,18.25
2022-09-22T12:21:13.764Z,18.30
2022-09-22T12:23:45.191Z,18.39
2022-09-22T12:26:24.792Z,18.40
2022-09-22T12:28:52.467Z,18.38
2022-09-22T12:31:21.454Z,18.27
2022-09-22T12:33:54.209Z,18.45
2022-09-22T12:36:35.218Z,18.63
2022-09-22T12:39:25.602Z,18.45
2022-09-22T12:42:04.250Z,18.42
2022-09-22T12:44:43.305Z,18.52
2022-09-22T12:47:16.839Z,18.53
2022-09-22T12:49:49.505Z,18.46
2022-09-22T12:52:42.285Z,18.50
2022-09-22T12:55:28.436Z,18.48
2022-09-22T12:57:57.722Z,18.63
2022-09-22T13:00:32.909Z,18.50
2022-09-22T13:03:01.794Z,18.27
2022-09-22T13:05:29.406Z,18.28
2022-09-22T13:07:57.173Z,18.31
2022-09-22T13:10:25.174Z,18.14
2022-09-22T13:13:09.427Z,18.26
2022-09-22T13:15:51.316Z,18.15
2022-09-22T13:18:41.393Z,18.08
2022-09-22T13:21:12.070Z,17.96
2022-09-22T13:23:39.642Z,17.98
2022-09-22T13:26:17.255Z,17.97
2022-09-22T13:28:44.873Z,17.86
2022-09-22T13:31:14.752Z,17.91
2022-09-22T13:33:43.503Z,17.88
2022-09-22T13:36:17.891Z,17.78
2022-09-22T13:38:51.266Z,17.59
2022-09-22T13:41:21.370Z,17.58
2022-09-22T13:43:49.245Z,17.48
2022-09-22T13:46:45.681Z,17.48
2022-09-22T13:49:37.428Z,17.39
2022-09-22T13:52:07.469Z,17.26
2022-09-22T13:54:36.695Z,17.27
2022-09-22T13:57:06.479Z,17.24
2022-09-22T13:59:38.685Z,17.20
2022-09-22T14:02:11.434Z,17.18
2022-09-22T14:04:50.902Z,17.17
2022-09-22T14:07:19.616Z,17.11
2022-09-22T14:09:47.618Z,17.02
2022-09-22T14:12:15.712Z,17.09
2022-09-22T14:14:44.201Z,17.07
2022-09-22T14:17:16.737Z,17.06
2022-09-22T14:20:04.781Z,17.02
2022-09-22T14:22:33.488Z,16.97
2022-09-22T14:25:02.272Z,16.90
2022-09-22T14:27:49.061Z,16.84
2022-09-22T14:30:17.944Z,16.78
2022-09-22T14:32:51.075Z,16.74
2022-09-22T14:35:33.106Z,16.60
2022-09-22T14:38:08.252Z,16.61
2022-09-22T14:40:54.302Z,16.57
2022-09-22T14:43:24.306Z,16.50
2022-09-22T14:46:07.424Z,16.37
2022-09-22T14:48:37.001Z,16.27
2022-09-22T14:51:20.485Z,16.12
2022-09-22T14:53:50.828Z,15.99
2022-09-22T14:56:22.449Z,15.82
2022-09-22T14:58:52.408Z,15.64
2022-09-22T15:01:41.598Z,15.56
2022-09-22T15:04:13.816Z,15.32
2022-09-22T15:06:41.238Z,15.16
2022-09-22T15:09:17.027Z,15.01
2022-09-22T15:11:50.541Z,14.78
2022-09-22T15:14:41.683Z,14.59
2022-09-22T15:17:53.149Z,14.44
2022-09-22T15:20:57.512Z,14.26
2022-09-22T15:23:26.779Z,14.25
2022-09-22T15:25:55.483Z,14.18
2022-09-22T15:28:25.245Z,14.00
2022-09-22T15:30:53.211Z,13.95
2022-09-22T15:33:21.330Z,13.87
2022-09-22T15:36:13.175Z,13.78
2022-09-22T15:38:41.408Z,13.66
2022-09-22T15:41:14.324Z,13.58
2022-09-22T15:43:42.189Z,13.48
2022-09-22T15:46:37.364Z,13.40
2022-09-22T15:49:21.117Z,13.29
2022-09-22T15:51:52.085Z,13.21
2022-09-22T15:54:22.057Z,13.15
2022-09-22T15:56:51.506Z,13.10
2022-09-22T15:59:22.013Z,13.09
2022-09-22T16:01:50.003Z,13.01
2022-09-22T16:04:19.006Z,13.06
2022-09-22T16:06:54.522Z,13.01
2022-09-22T16:09:25.418Z,12.99
2022-09-22T16:11:54.009Z,12.95
2022-09-22T16:14:23.009Z,12.94
2022-09-22T16:16:51.864Z,12.89
2022-09-22T16:19:20.432Z,12.84
2022-09-22T16:21:52.138Z,12.79
2022-09-22T16:24:22.573Z,12.72
2022-09-22T16:26:51.983Z,12.70
2022-09-22T16:29:19.692Z,12.69
2022-09-22T16:31:47.402Z,12.71
2022-09-22T16:34:15.264Z,12.72
2022-09-22T16:36:44.683Z,12.71
2022-09-22T16:39:12.293Z,12.71
2022-09-22T16:41:44.282Z,12.65
2022-09-22T16:44:12.061Z,12.61
2022-09-22T16:46:39.728Z,12.65
2022-09-22T16:49:08.260Z,12.59
2022-09-22T16:51:41.114Z,12.58
2022-09-22T16:54:13.468Z,12.55
2022-09-22T16:56:44.067Z,12.51
2022-09-22T16:59:15.500Z,12.56
2022-09-22T17:01:43.962Z,12.57
2022-09-22T17:04:13.177Z,12.65
2022-09-22T17:06:41.791Z,12.70
2022-09-22T17:09:10.307Z,12.70
2022-09-22T17:11:40.374Z,12.72
2022-09-22T17:14:12.553Z,12.72
2022-09-22T17:16:44.130Z,12.75
2022-09-22T17:19:17.292Z,12.81
2022-09-22T17:21:48.352Z,12.84
2022-09-22T17:24:16.271Z,12.87
2022-09-22T17:26:52.249Z,12.87
2022-09-22T17:29:26.572Z,12.84
2022-09-22T17:32:04.510Z,12.85
2022-09-22T17:34:33.068Z,12.84
2022-09-22T17:37:01.004Z,12.80
2022-09-22T17:39:29.525Z,12.79
2022-09-22T17:41:57.142Z,12.80
2022-09-22T17:44:28.602Z,12.82
2022-09-22T17:47:16.245Z,12.79
2022-09-22T17:50:02.344Z,12.72
2022-09-22T17:53:08.679Z,12.66
2022-09-22T17:55:36.503Z,12.61
2022-09-22T17:58:04.783Z,12.49
2022-09-22T18:00:33.967Z,12.58
2022-09-22T18:03:02.414Z,12.61
2022-09-22T18:05:32.288Z,12.62
2022-09-22T18:08:00.072Z,12.63
2022-09-22T18:10:32.490Z,12.64
2022-09-22T18:13:01.095Z,12.58
2022-09-22T18:15:29.383Z,12.50
2022-09-22T18:17:58.228Z,12.45
2022-09-22T18:20:26.351Z,12.45
2022-09-22T18:22:54.433Z,12.42
2022-09-22T18:25:25.659Z,12.38
2022-09-22T18:27:54.682Z,12.34
2022-09-22T18:30:22.413Z,12.30
2022-09-22T18:32:51.877Z,12.31
2022-09-22T18:35:20.293Z,12.28
2022-09-22T18:37:47.954Z,12.30
2022-09-22T18:40:17.205Z,12.31
2022-09-22T18:42:45.434Z,12.35
2022-09-22T18:45:14.347Z,12.33
2022-09-22T18:47:43.828Z,12.34
2022-09-22T18:50:11.877Z,12.40
2022-09-22T18:52:43.001Z,12.44
2022-09-22T18:55:11.776Z,12.47
2022-09-22T18:57:40.233Z,12.52
2022-09-22T19:00:09.543Z,12.53
2022-09-22T19:02:37.790Z,12.55
2022-09-22T19:05:05.899Z,12.56
2022-09-22T19:07:43.851Z,12.56
2022-09-22T19:10:18.975Z,12.63
2022-09-22T19:12:46.624Z,12.68
2022-09-22T19:15:16.797Z,12.71
2022-09-22T19:17:46.318Z,12.73
2022-09-22T19:20:15.793Z,12.77
2022-09-22T19:22:43.447Z,12.79
2022-09-22T19:25:11.865Z,12.81
2022-09-22T19:27:40.121Z,12.77
2022-09-22T19:30:09.549Z,12.75
2022-09-22T19:32:37.490Z,12.72
2022-09-22T19:35:06.122Z,12.67
2022-09-22T19:37:34.718Z,12.65
2022-09-22T19:40:02.574Z,12.64
2022-09-22T19:42:30.396Z,12.65
2022-09-22T19:44:58.266Z,12.63
2022-09-22T19:47:25.915Z,12.64
2022-09-22T19:49:53.528Z,12.64
2022-09-22T19:52:21.397Z,12.57
2022-09-22T19:54:51.270Z,12.56
2022-09-22T19:57:19.191Z,12.61
2022-09-22T19:59:46.784Z,12.64
2022-09-22T20:02:14.990Z,12.68
2022-09-22T20:04:42.588Z,12.69
2022-09-22T20:07:11.015Z,12.67
2022-09-22T20:09:39.059Z,12.67
2022-09-22T20:12:06.715Z,12.64
2022-09-22T20:14:34.608Z,12.57
2022-09-22T20:17:07.053Z,12.53
2022-09-22T20:19:40.497Z,12.48
2022-09-22T20:22:27.960Z,12.42
2022-09-22T20:25:01.617Z,12.38
2022-09-22T20:27:33.921Z,12.35
2022-09-22T20:30:01.708Z,12.33
2022-09-22T20:32:31.742Z,12.32
2022-09-22T20:34:59.468Z,12.29
2022-09-22T20:37:27.294Z,12.27
2022-09-22T20:39:56.195Z,12.27
2022-09-22T20:42:24.283Z,12.30
2022-09-22T20:44:52.074Z,12.31
2022-09-22T20:47:21.313Z,12.32
2022-09-22T20:49:51.751Z,12.36
2022-09-22T20:52:20.366Z,12.34
2022-09-22T20:54:48.641Z,12.38
2022-09-22T20:57:16.994Z,12.39
2022-09-22T20:59:45.964Z,12.36
2022-09-22T21:02:14.207Z,12.32
2022-09-22T21:04:42.173Z,12.32
2022-09-22T21:07:11.449Z,12.28
2022-09-22T21:09:57.645Z,12.31
2022-09-22T21:12:31.082Z,12.27
2022-09-22T21:14:59.307Z,12.23
2022-09-22T21:17:32.978Z,12.27
2022-09-22T21:20:01.037Z,12.26
2022-09-22T21:22:29.038Z,12.31
2022-09-22T21:24:57.062Z,12.33
2022-09-22T21:27:25.250Z,12.30
2022-09-22T21:29:53.633Z,12.29
2022-09-22T21:32:21.330Z,12.29
2022-09-22T21:34:49.335Z,12.29
2022-09-22T21:37:17.154Z,12.23
2022-09-22T21:39:44.930Z,12.21
2022-09-22T21:42:12.679Z,12.21
2022-09-22T21:44:40.379Z,12.16
2022-09-22T21:47:08.217Z,12.13
2022-09-22T21:49:35.930Z,12.09
2022-09-22T21:52:03.593Z,12.03
2022-09-22T21:54:31.569Z,12.04
2022-09-22T21:56:59.177Z,12.02
2022-09-22T21:59:27.089Z,12.01
2022-09-22T22:01:54.834Z,12.04
2022-09-22T22:04:22.644Z,12.01
2022-09-22T22:06:51.765Z,11.97
2022-09-22T22:09:20.710Z,12.01
2022-09-22T22:11:55.677Z,12.06
2022-09-22T22:14:24.380Z,12.10
2022-09-22T22:16:53.262Z,12.14
2022-09-22T22:19:22.224Z,12.17
2022-09-22T22:21:50.825Z,12.20
2022-09-22T22:24:30.126Z,12.18
2022-09-22T22:27:01.720Z,12.10
2022-09-22T22:29:34.905Z,12.06
2022-09-22T22:32:04.105Z,12.06
2022-09-22T22:34:31.848Z,12.06
2022-09-22T22:36:59.582Z,12.11
2022-09-22T22:39:27.224Z,12.08
2022-09-22T22:41:55.476Z,12.05
2022-09-22T22:44:23.142Z,12.02
2022-09-22T22:46:51.618Z,12.03
2022-09-22T22:49:19.780Z,12.00
2022-09-22T22:51:49.339Z,12.02
2022-09-22T22:54:16.955Z,11.95
2022-09-22T22:56:48.909Z,12.00
2022-09-22T22:59:18.778Z,12.04
2022-09-22T23:01:46.356Z,12.01
2022-09-22T23:04:16.876Z,11.95
2022-09-22T23:06:47.443Z,11.95
2022-09-22T23:09:16.142Z,11.89
2022-09-22T23:11:44.149Z,11.89
2022-09-22T23:14:13.094Z,11.86
2022-09-22T23:16:46.223Z,11.88
2022-09-22T23:19:15.531Z,11.87
2022-09-22T23:21:45.293Z,11.81
2022-09-22T23:24:15.704Z,11.77
2022-09-22T23:26:44.145Z,11.70
2022-09-22T23:29:12.545Z,11.60
2022-09-22T23:31:40.121Z,11.55
2022-09-22T23:34:08.143Z,11.48
2022-09-22T23:36:36.006Z,11.55
2022-09-22T23:39:04.483Z,11.58
2022-09-22T23:41:34.257Z,11.51
2022-09-22T23:44:03.375Z,11.44
2022-09-22T23:46:31.505Z,11.45
2022-09-22T23:49:02.606Z,11.43
2022-09-22T23:51:30.782Z,11.41
2022-09-22T23:53:58.662Z,11.36
2022-09-22T23:56:26.365Z,11.38
2022-09-22T23:58:54.006Z,11.36
